Terminal Aerodrome Forecast
Issued by NWS Mt. Holly, NJ

Home | Current Version | Previous Version | Text Only | Print | Product List | Glossary On
Versions: 1 2 3 4 5 6 7 8 9 10 11 12 13 14 15 16 17 18 19 20 21 22 23 24 25 26
000
FTUS41 KPHI 252039 AAA
TAFPHL
TAF AMD
KPHL 252039Z 2521/2624 17015G22KT P6SM SCT035 SCT070
     FM252130 19015G25KT 6SM -TSRA BR BKN030CB
      TEMPO 2522/2523 VRB20G40KT 2SM +TSRA OVC020CB
     FM260000 29014G24KT P6SM VCSH OVC045
     FM260200 29018G26KT P6SM SCT045=

USA.gov is the U.S. government's official web portal to all federal, state and local government web resources and services.